sensor_id;sensor_type;location;lat;lon;timestamp;pressure;altitude;pressure_sealevel;temperature;humidity
38812;BME280;24553;51.640;-0.752;2023-03-16T00:00:23;100268.28;;;8.50;100.00
38812;BME280;24553;51.640;-0.752;2023-03-16T00:02:49;100262.63;;;8.54;100.00
38812;BME280;24553;51.640;-0.752;2023-03-16T00:05:14;100270.56;;;8.54;100.00
38812;BME280;24553;51.640;-0.752;2023-03-16T00:07:40;100258.53;;;8.66;100.00
38812;BME280;24553;51.640;-0.752;2023-03-16T00:10:06;100258.69;;;8.64;100.00
38812;BME280;24553;51.640;-0.752;2023-03-16T00:12:32;100260.34;;;8.65;100.00
38812;BME280;24553;51.640;-0.752;2023-03-16T00:14:59;100256.25;;;8.63;100.00
38812;BME280;24553;51.640;-0.752;2023-03-16T00:17:25;100255.25;;;8.64;100.00
38812;BME280;24553;51.640;-0.752;2023-03-16T00:19:53;100247.59;;;8.69;100.00
38812;BME280;24553;51.640;-0.752;2023-03-16T00:22:24;100240.28;;;8.71;100.00
38812;BME280;24553;51.640;-0.752;2023-03-16T00:24:50;100238.28;;;8.73;100.00
38812;BME280;24553;51.640;-0.752;2023-03-16T00:27:17;100238.28;;;8.73;100.00
38812;BME280;24553;51.640;-0.752;2023-03-16T00:29:43;100235.28;;;8.76;100.00
38812;BME280;24553;51.640;-0.752;2023-03-16T00:32:24;100229.88;;;8.84;100.00
38812;BME280;24553;51.640;-0.752;2023-03-16T00:34:49;100225.88;;;8.88;100.00
38812;BME280;24553;51.640;-0.752;2023-03-16T00:37:17;100203.53;;;8.91;100.00
38812;BME280;24553;51.640;-0.752;2023-03-16T00:39:44;100202.50;;;8.92;100.00
38812;BME280;24553;51.640;-0.752;2023-03-16T00:42:11;100200.28;;;8.95;100.00
38812;BME280;24553;51.640;-0.752;2023-03-16T00:44:37;100199.75;;;9.00;100.00
38812;BME280;24553;51.640;-0.752;2023-03-16T00:47:04;100190.88;;;9.08;100.00
38812;BME280;24553;51.640;-0.752;2023-03-16T00:49:31;100187.78;;;9.04;100.00
38812;BME280;24553;51.640;-0.752;2023-03-16T00:52:02;100179.91;;;9.11;100.00
38812;BME280;24553;51.640;-0.752;2023-03-16T00:54:30;100175.47;;;9.11;100.00
38812;BME280;24553;51.640;-0.752;2023-03-16T00:57:00;100168.97;;;9.14;100.00
38812;BME280;24553;51.640;-0.752;2023-03-16T00:59:27;100179.97;;;9.17;100.00
38812;BME280;24553;51.640;-0.752;2023-03-16T01:01:53;100170.03;;;9.20;100.00
38812;BME280;24553;51.640;-0.752;2023-03-16T01:04:19;100174.16;;;9.29;100.00
38812;BME280;24553;51.640;-0.752;2023-03-16T01:06:45;100161.16;;;9.27;100.00
38812;BME280;24553;51.640;-0.752;2023-03-16T01:09:10;100163.94;;;9.19;100.00
38812;BME280;24553;51.640;-0.752;2023-03-16T01:11:36;100158.25;;;9.22;100.00
38812;BME280;24553;51.640;-0.752;2023-03-16T01:14:02;100159.47;;;9.20;100.00
38812;BME280;24553;51.640;-0.752;2023-03-16T01:16:28;100150.97;;;9.24;100.00
38812;BME280;24553;51.640;-0.752;2023-03-16T01:18:54;100143.63;;;9.26;100.00
38812;BME280;24553;51.640;-0.752;2023-03-16T01:21:21;100146.03;;;9.21;100.00
38812;BME280;24553;51.640;-0.752;2023-03-16T01:23:47;100135.09;;;9.24;100.00
38812;BME280;24553;51.640;-0.752;2023-03-16T01:26:12;100136.72;;;9.25;100.00
38812;BME280;24553;51.640;-0.752;2023-03-16T01:28:40;100118.63;;;9.29;100.00
38812;BME280;24553;51.640;-0.752;2023-03-16T01:31:08;100121.91;;;9.31;100.00
38812;BME280;24553;51.640;-0.752;2023-03-16T01:33:35;100115.66;;;9.38;100.00
38812;BME280;24553;51.640;-0.752;2023-03-16T01:38:28;100122.69;;;9.53;100.00
38812;BME280;24553;51.640;-0.752;2023-03-16T01:40:54;100109.69;;;9.58;100.00
38812;BME280;24553;51.640;-0.752;2023-03-16T01:43:22;100106.41;;;9.56;100.00
38812;BME280;24553;51.640;-0.752;2023-03-16T01:48:34;100099.53;;;9.61;100.00
38812;BME280;24553;51.640;-0.752;2023-03-16T01:51:58;100102.66;;;9.72;100.00
38812;BME280;24553;51.640;-0.752;2023-03-16T01:54:12;100089.00;;;9.68;100.00
38812;BME280;24553;51.640;-0.752;2023-03-16T01:59:18;100072.25;;;9.68;100.00
38812;BME280;24553;51.640;-0.752;2023-03-16T02:01:47;100067.41;;;9.71;100.00
38812;BME280;24553;51.640;-0.752;2023-03-16T02:04:21;100064.94;;;9.70;100.00
38812;BME280;24553;51.640;-0.752;2023-03-16T02:06:48;100068.63;;;9.75;100.00
38812;BME280;24553;51.640;-0.752;2023-03-16T02:09:15;100055.22;;;9.77;100.00
38812;BME280;24553;51.640;-0.752;2023-03-16T02:11:45;100052.63;;;9.83;100.00
38812;BME280;24553;51.640;-0.752;2023-03-16T02:14:11;100057.75;;;9.92;100.00
38812;BME280;24553;51.640;-0.752;2023-03-16T02:16:39;100055.53;;;10.02;100.00
38812;BME280;24553;51.640;-0.752;2023-03-16T02:19:12;100052.91;;;10.02;100.00
38812;BME280;24553;51.640;-0.752;2023-03-16T02:21:54;100050.47;;;10.07;100.00
38812;BME280;24553;51.640;-0.752;2023-03-16T02:24:26;100053.94;;;10.14;100.00
38812;BME280;24553;51.640;-0.752;2023-03-16T02:26:54;100043.19;;;10.22;100.00
38812;BME280;24553;51.640;-0.752;2023-03-16T02:32:09;100033.00;;;10.26;100.00
38812;BME280;24553;51.640;-0.752;2023-03-16T02:34:35;100028.13;;;10.30;100.00
38812;BME280;24553;51.640;-0.752;2023-03-16T02:37:02;100028.13;;;10.30;100.00
38812;BME280;24553;51.640;-0.752;2023-03-16T02:39:27;100029.19;;;10.35;100.00
38812;BME280;24553;51.640;-0.752;2023-03-16T02:41:52;100023.06;;;10.35;100.00
38812;BME280;24553;51.640;-0.752;2023-03-16T02:44:26;100015.94;;;10.35;100.00
38812;BME280;24553;51.640;-0.752;2023-03-16T02:47:00;100017.59;;;10.43;100.00
38812;BME280;24553;51.640;-0.752;2023-03-16T02:49:37;100008.22;;;10.54;100.00
38812;BME280;24553;51.640;-0.752;2023-03-16T02:52:06;99997.63;;;10.54;100.00
38812;BME280;24553;51.640;-0.752;2023-03-16T02:54:32;100003.72;;;10.54;100.00
38812;BME280;24553;51.640;-0.752;2023-03-16T02:56:58;99996.19;;;10.58;100.00
38812;BME280;24553;51.640;-0.752;2023-03-16T02:59:23;100001.28;;;10.53;100.00
38812;BME280;24553;51.640;-0.752;2023-03-16T03:01:49;100003.13;;;10.59;100.00
38812;BME280;24553;51.640;-0.752;2023-03-16T03:04:15;100005.16;;;10.63;100.00
38812;BME280;24553;51.640;-0.752;2023-03-16T03:06:41;99996.78;;;10.60;100.00
38812;BME280;24553;51.640;-0.752;2023-03-16T03:09:06;100001.09;;;10.67;100.00
38812;BME280;24553;51.640;-0.752;2023-03-16T03:11:32;99993.13;;;10.67;100.00
38812;BME280;24553;51.640;-0.752;2023-03-16T03:13:57;99993.53;;;10.71;100.00
38812;BME280;24553;51.640;-0.752;2023-03-16T03:16:23;99998.22;;;10.76;100.00
38812;BME280;24553;51.640;-0.752;2023-03-16T03:18:49;99992.13;;;10.82;100.00
38812;BME280;24553;51.640;-0.752;2023-03-16T03:21:14;99993.97;;;10.75;100.00
38812;BME280;24553;51.640;-0.752;2023-03-16T03:23:40;100000.28;;;10.87;100.00
38812;BME280;24553;51.640;-0.752;2023-03-16T03:26:06;99997.44;;;10.95;100.00
38812;BME280;24553;51.640;-0.752;2023-03-16T03:28:31;99987.22;;;10.99;100.00
38812;BME280;24553;51.640;-0.752;2023-03-16T03:30:58;99993.75;;;10.96;100.00
38812;BME280;24553;51.640;-0.752;2023-03-16T03:33:26;99988.03;;;10.93;100.00
38812;BME280;24553;51.640;-0.752;2023-03-16T03:35:55;99983.34;;;10.95;100.00
38812;BME280;24553;51.640;-0.752;2023-03-16T03:38:21;99980.69;;;11.01;100.00
38812;BME280;24553;51.640;-0.752;2023-03-16T03:40:50;99984.56;;;10.99;100.00
38812;BME280;24553;51.640;-0.752;2023-03-16T03:43:16;99975.19;;;11.03;100.00
38812;BME280;24553;51.640;-0.752;2023-03-16T03:45:41;99972.72;;;11.08;100.00
38812;BME280;24553;51.640;-0.752;2023-03-16T03:48:06;99979.03;;;11.07;100.00
38812;BME280;24553;51.640;-0.752;2023-03-16T03:50:32;99980.25;;;11.11;100.00
38812;BME280;24553;51.640;-0.752;2023-03-16T03:52:57;99978.84;;;11.08;100.00
38812;BME280;24553;51.640;-0.752;2023-03-16T03:55:22;99981.06;;;11.11;100.00
38812;BME280;24553;51.640;-0.752;2023-03-16T03:57:48;99981.88;;;11.12;100.00
38812;BME280;24553;51.640;-0.752;2023-03-16T04:00:13;99982.88;;;11.18;100.00
38812;BME280;24553;51.640;-0.752;2023-03-16T04:02:39;99977.00;;;11.16;100.00
38812;BME280;24553;51.640;-0.752;2023-03-16T04:05:05;99988.63;;;11.14;100.00
38812;BME280;24553;51.640;-0.752;2023-03-16T04:07:31;99977.38;;;11.12;100.00
38812;BME280;24553;51.640;-0.752;2023-03-16T04:09:57;99977.38;;;11.12;100.00
38812;BME280;24553;51.640;-0.752;2023-03-16T04:12:22;99978.22;;;11.13;100.00
38812;BME280;24553;51.640;-0.752;2023-03-16T04:14:48;99971.88;;;11.07;100.00
38812;BME280;24553;51.640;-0.752;2023-03-16T04:17:13;99971.50;;;11.04;100.00
38812;BME280;24553;51.640;-0.752;2023-03-16T04:19:38;99969.88;;;11.03;100.00
38812;BME280;24553;51.640;-0.752;2023-03-16T04:22:04;99962.09;;;11.08;100.00
38812;BME280;24553;51.640;-0.752;2023-03-16T04:24:29;99965.78;;;11.13;100.00
38812;BME280;24553;51.640;-0.752;2023-03-16T04:26:59;99969.44;;;11.06;100.00
38812;BME280;24553;51.640;-0.752;2023-03-16T04:29:27;99961.69;;;11.11;100.00
38812;BME280;24553;51.640;-0.752;2023-03-16T04:31:52;99959.44;;;11.14;100.00
38812;BME280;24553;51.640;-0.752;2023-03-16T04:34:20;99963.31;;;11.12;100.00
38812;BME280;24553;51.640;-0.752;2023-03-16T04:36:52;99964.13;;;11.19;100.00
38812;BME280;24553;51.640;-0.752;2023-03-16T04:39:18;99964.53;;;11.16;100.00
38812;BME280;24553;51.640;-0.752;2023-03-16T04:41:44;99968.00;;;11.17;100.00
38812;BME280;24553;51.640;-0.752;2023-03-16T04:44:09;99968.81;;;11.17;100.00
38812;BME280;24553;51.640;-0.752;2023-03-16T04:46:34;99961.66;;;11.18;100.00
38812;BME280;24553;51.640;-0.752;2023-03-16T04:49:00;99961.66;;;11.18;100.00
38812;BME280;24553;51.640;-0.752;2023-03-16T04:51:26;99967.38;;;11.14;100.00
38812;BME280;24553;51.640;-0.752;2023-03-16T04:53:52;99947.81;;;11.16;100.00
38812;BME280;24553;51.640;-0.752;2023-03-16T04:56:17;99940.22;;;11.19;100.00
38812;BME280;24553;51.640;-0.752;2023-03-16T04:58:44;99936.16;;;11.17;100.00
38812;BME280;24553;51.640;-0.752;2023-03-16T05:01:10;99924.13;;;11.07;100.00
38812;BME280;24553;51.640;-0.752;2023-03-16T05:03:35;99943.31;;;11.09;100.00
38812;BME280;24553;51.640;-0.752;2023-03-16T05:06:01;99935.16;;;11.04;100.00
38812;BME280;24553;51.640;-0.752;2023-03-16T05:08:26;99935.16;;;11.04;100.00
38812;BME280;24553;51.640;-0.752;2023-03-16T05:10:56;99937.19;;;11.16;100.00
38812;BME280;24553;51.640;-0.752;2023-03-16T05:13:21;99934.75;;;11.07;100.00
38812;BME280;24553;51.640;-0.752;2023-03-16T05:15:46;99931.88;;;11.16;100.00
38812;BME280;24553;51.640;-0.752;2023-03-16T05:18:12;99938.19;;;11.21;100.00
38812;BME280;24553;51.640;-0.752;2023-03-16T05:20:37;99926.34;;;11.17;100.00
38812;BME280;24553;51.640;-0.752;2023-03-16T05:23:02;99931.47;;;11.19;100.00
38812;BME280;24553;51.640;-0.752;2023-03-16T05:25:28;99930.66;;;11.11;100.00
38812;BME280;24553;51.640;-0.752;2023-03-16T05:27:53;99935.53;;;11.14;100.00
38812;BME280;24553;51.640;-0.752;2023-03-16T05:30:19;99933.69;;;11.22;100.00
38812;BME280;24553;51.640;-0.752;2023-03-16T05:32:45;99926.13;;;11.25;100.00
38812;BME280;24553;51.640;-0.752;2023-03-16T05:35:11;99927.78;;;11.26;100.00
38812;BME280;24553;51.640;-0.752;2023-03-16T05:37:38;99929.00;;;11.24;100.00
38812;BME280;24553;51.640;-0.752;2023-03-16T05:40:05;99927.72;;;11.33;100.00
38812;BME280;24553;51.640;-0.752;2023-03-16T05:42:48;99931.44;;;11.32;100.00
38812;BME280;24553;51.640;-0.752;2023-03-16T05:45:15;99924.28;;;11.32;100.00
38812;BME280;24553;51.640;-0.752;2023-03-16T05:47:42;99927.78;;;11.20;100.00
38812;BME280;24553;51.640;-0.752;2023-03-16T05:50:09;99932.47;;;11.24;100.00
38812;BME280;24553;51.640;-0.752;2023-03-16T05:52:36;99931.44;;;11.25;100.00
38812;BME280;24553;51.640;-0.752;2023-03-16T05:55:03;99931.66;;;11.24;100.00
38812;BME280;24553;51.640;-0.752;2023-03-16T05:57:30;99928.19;;;11.23;100.00
38812;BME280;24553;51.640;-0.752;2023-03-16T05:59:56;99924.53;;;11.11;100.00
38812;BME280;24553;51.640;-0.752;2023-03-16T06:02:21;99929.81;;;11.18;100.00
38812;BME280;24553;51.640;-0.752;2023-03-16T06:04:46;99931.66;;;11.24;100.00
38812;BME280;24553;51.640;-0.752;2023-03-16T06:07:12;99924.69;;;11.23;100.00
38812;BME280;24553;51.640;-0.752;2023-03-16T06:09:37;99922.88;;;11.17;100.00
38812;BME280;24553;51.640;-0.752;2023-03-16T06:12:02;99924.53;;;11.11;100.00
38812;BME280;24553;51.640;-0.752;2023-03-16T06:14:28;99922.88;;;11.23;100.00
38812;BME280;24553;51.640;-0.752;2023-03-16T06:16:54;99931.09;;;10.88;100.00
38812;BME280;24553;51.640;-0.752;2023-03-16T06:19:20;99933.97;;;11.00;100.00
38812;BME280;24553;51.640;-0.752;2023-03-16T06:21:46;99920.66;;;11.07;100.00
38812;BME280;24553;51.640;-0.752;2023-03-16T06:24:11;99924.22;;;10.74;100.00
38812;BME280;24553;51.640;-0.752;2023-03-16T06:26:36;99925.38;;;11.05;100.00
38812;BME280;24553;51.640;-0.752;2023-03-16T06:29:02;99924.75;;;11.09;100.00
38812;BME280;24553;51.640;-0.752;2023-03-16T06:31:28;99925.97;;;11.07;100.00
38812;BME280;24553;51.640;-0.752;2023-03-16T06:33:54;99927.41;;;11.09;100.00
38812;BME280;24553;51.640;-0.752;2023-03-16T06:36:19;99926.81;;;11.01;100.00
38812;BME280;24553;51.640;-0.752;2023-03-16T06:38:45;99930.69;;;10.98;100.00
38812;BME280;24553;51.640;-0.752;2023-03-16T06:41:10;99937.63;;;10.99;100.00
38812;BME280;24553;51.640;-0.752;2023-03-16T06:43:36;99938.66;;;10.91;100.00
38812;BME280;24553;51.640;-0.752;2023-03-16T06:46:01;99942.53;;;11.02;100.00
38812;BME280;24553;51.640;-0.752;2023-03-16T06:48:28;99938.22;;;11.01;100.00
38812;BME280;24553;51.640;-0.752;2023-03-16T06:50:53;99922.31;;;11.08;100.00
38812;BME280;24553;51.640;-0.752;2023-03-16T06:53:18;99920.66;;;11.13;100.00
38812;BME280;24553;51.640;-0.752;2023-03-16T06:55:44;99915.53;;;11.19;100.00
38812;BME280;24553;51.640;-0.752;2023-03-16T06:58:09;99909.81;;;11.22;100.00
38812;BME280;24553;51.640;-0.752;2023-03-16T07:00:35;99909.81;;;11.22;100.00
38812;BME280;24553;51.640;-0.752;2023-03-16T07:03:01;99903.72;;;11.14;100.00
38812;BME280;24553;51.640;-0.752;2023-03-16T07:05:26;99899.63;;;11.12;100.00
38812;BME280;24553;51.640;-0.752;2023-03-16T07:07:52;99909.03;;;11.08;100.00
38812;BME280;24553;51.640;-0.752;2023-03-16T07:10:19;99915.13;;;11.15;100.00
38812;BME280;24553;51.640;-0.752;2023-03-16T07:12:45;99915.13;;;11.15;100.00
38812;BME280;24553;51.640;-0.752;2023-03-16T07:15:11;99909.00;;;11.14;100.00
38812;BME280;24553;51.640;-0.752;2023-03-16T07:17:36;99918.19;;;11.19;100.00
38812;BME280;24553;51.640;-0.752;2023-03-16T07:20:03;99913.31;;;11.16;100.00
38812;BME280;24553;51.640;-0.752;2023-03-16T07:22:30;99912.91;;;11.19;100.00
38812;BME280;24553;51.640;-0.752;2023-03-16T07:24:56;99896.56;;;11.22;100.00
38812;BME280;24553;51.640;-0.752;2023-03-16T07:27:23;99891.31;;;10.88;100.00
38812;BME280;24553;51.640;-0.752;2023-03-16T07:29:49;99883.56;;;11.00;100.00
38812;BME280;24553;51.640;-0.752;2023-03-16T07:32:16;99902.09;;;11.13;100.00
38812;BME280;24553;51.640;-0.752;2023-03-16T07:34:42;99902.88;;;11.21;100.00
38812;BME280;24553;51.640;-0.752;2023-03-16T07:37:07;99895.50;;;11.23;100.00
38812;BME280;24553;51.640;-0.752;2023-03-16T07:39:36;99898.19;;;11.16;100.00
38812;BME280;24553;51.640;-0.752;2023-03-16T07:42:02;99903.91;;;11.20;100.00
38812;BME280;24553;51.640;-0.752;2023-03-16T07:44:28;99901.25;;;11.20;100.00
38812;BME280;24553;51.640;-0.752;2023-03-16T07:46:54;99910.25;;;11.19;100.00
38812;BME280;24553;51.640;-0.752;2023-03-16T07:49:19;99912.03;;;11.25;100.00
38812;BME280;24553;51.640;-0.752;2023-03-16T07:51:45;99903.09;;;11.26;100.00
38812;BME280;24553;51.640;-0.752;2023-03-16T07:54:10;99906.94;;;11.30;100.00
38812;BME280;24553;51.640;-0.752;2023-03-16T07:56:36;99908.97;;;11.28;100.00
38812;BME280;24553;51.640;-0.752;2023-03-16T07:59:02;99914.09;;;11.23;100.00
38812;BME280;24553;51.640;-0.752;2023-03-16T08:01:28;99915.97;;;11.16;100.00
38812;BME280;24553;51.640;-0.752;2023-03-16T08:03:53;99910.84;;;11.21;100.00
38812;BME280;24553;51.640;-0.752;2023-03-16T08:06:19;99915.94;;;11.22;100.00
38812;BME280;24553;51.640;-0.752;2023-03-16T08:08:45;99909.56;;;11.30;100.00
38812;BME280;24553;51.640;-0.752;2023-03-16T08:11:11;99908.72;;;11.43;100.00
38812;BME280;24553;51.640;-0.752;2023-03-16T08:13:36;99902.78;;;11.47;100.00
38812;BME280;24553;51.640;-0.752;2023-03-16T08:16:02;99909.31;;;11.51;100.00
38812;BME280;24553;51.640;-0.752;2023-03-16T08:18:28;99915.03;;;11.48;100.00
38812;BME280;24553;51.640;-0.752;2023-03-16T08:20:54;99918.28;;;11.57;100.00
38812;BME280;24553;51.640;-0.752;2023-03-16T08:23:20;99919.94;;;11.51;100.00
38812;BME280;24553;51.640;-0.752;2023-03-16T08:25:50;99911.19;;;11.44;100.00
38812;BME280;24553;51.640;-0.752;2023-03-16T08:28:15;99914.22;;;11.48;100.00
38812;BME280;24553;51.640;-0.752;2023-03-16T08:30:48;99913.19;;;11.49;100.00
38812;BME280;24553;51.640;-0.752;2023-03-16T08:33:13;99913.78;;;11.51;100.00
38812;BME280;24553;51.640;-0.752;2023-03-16T08:35:43;99911.31;;;11.56;100.00
38812;BME280;24553;51.640;-0.752;2023-03-16T08:38:11;99916.84;;;11.54;100.00
38812;BME280;24553;51.640;-0.752;2023-03-16T08:40:39;99914.44;;;11.46;100.00
38812;BME280;24553;51.640;-0.752;2023-03-16T08:43:07;99914.63;;;11.45;100.00
38812;BME280;24553;51.640;-0.752;2023-03-16T08:45:32;99914.22;;;11.48;100.00
38812;BME280;24553;51.640;-0.752;2023-03-16T08:47:58;99914.00;;;11.49;100.00
38812;BME280;24553;51.640;-0.752;2023-03-16T08:50:24;99914.22;;;11.48;100.00
38812;BME280;24553;51.640;-0.752;2023-03-16T08:52:49;99909.72;;;11.48;100.00
38812;BME280;24553;51.640;-0.752;2023-03-16T08:55:15;99908.47;;;11.51;100.00
38812;BME280;24553;51.640;-0.752;2023-03-16T08:57:40;99912.53;;;11.53;100.00
38812;BME280;24553;51.640;-0.752;2023-03-16T09:00:09;99905.81;;;11.51;100.00
38812;BME280;24553;51.640;-0.752;2023-03-16T09:02:42;99902.16;;;11.52;100.00
38812;BME280;24553;51.640;-0.752;2023-03-16T09:05:09;99897.84;;;11.57;100.00
38812;BME280;24553;51.640;-0.752;2023-03-16T09:07:36;99901.09;;;11.60;100.00
38812;BME280;24553;51.640;-0.752;2023-03-16T09:10:02;99893.94;;;11.60;100.00
38812;BME280;24553;51.640;-0.752;2023-03-16T09:12:30;99892.72;;;11.63;100.00
38812;BME280;24553;51.640;-0.752;2023-03-16T09:14:55;99896.81;;;11.58;100.00
38812;BME280;24553;51.640;-0.752;2023-03-16T09:17:20;99893.56;;;11.56;100.00
38812;BME280;24553;51.640;-0.752;2023-03-16T09:19:46;99900.75;;;11.49;100.00
38812;BME280;24553;51.640;-0.752;2023-03-16T09:22:12;99896.59;;;11.60;100.00
38812;BME280;24553;51.640;-0.752;2023-03-16T09:24:37;99903.13;;;11.64;100.00
38812;BME280;24553;51.640;-0.752;2023-03-16T09:27:03;99905.97;;;11.63;100.00
38812;BME280;24553;51.640;-0.752;2023-03-16T09:29:29;99905.19;;;11.62;100.00
38812;BME280;24553;51.640;-0.752;2023-03-16T09:31:54;99902.91;;;11.66;100.00
38812;BME280;24553;51.640;-0.752;2023-03-16T09:34:20;99895.31;;;11.69;100.00
38812;BME280;24553;51.640;-0.752;2023-03-16T09:36:45;99896.97;;;11.64;100.00
38812;BME280;24553;51.640;-0.752;2023-03-16T09:39:11;99897.38;;;11.67;100.00
38812;BME280;24553;51.640;-0.752;2023-03-16T09:41:40;99897.34;;;11.74;100.00
38812;BME280;24553;51.640;-0.752;2023-03-16T09:46:53;99903.63;;;11.93;100.00
38812;BME280;24553;51.640;-0.752;2023-03-16T09:49:22;99909.91;;;11.98;100.00
38812;BME280;24553;51.640;-0.752;2023-03-16T09:51:51;99906.97;;;12.13;100.00
38812;BME280;24553;51.640;-0.752;2023-03-16T09:54:38;99898.72;;;12.21;100.00
38812;BME280;24553;51.640;-0.752;2023-03-16T09:57:27;99898.97;;;12.38;100.00
38812;BME280;24553;51.640;-0.752;2023-03-16T09:59:59;99890.72;;;12.47;100.00
38812;BME280;24553;51.640;-0.752;2023-03-16T10:05:11;99883.06;;;12.57;100.00
38812;BME280;24553;51.640;-0.752;2023-03-16T10:12:58;99866.19;;;12.88;100.00
38812;BME280;24553;51.640;-0.752;2023-03-16T10:15:28;99865.09;;;12.96;100.00
38812;BME280;24553;51.640;-0.752;2023-03-16T10:18:02;99856.69;;;12.99;100.00
38812;BME280;24553;51.640;-0.752;2023-03-16T10:20:32;99859.84;;;12.89;100.00
38812;BME280;24553;51.640;-0.752;2023-03-16T10:22:59;99855.78;;;13.05;100.00
38812;BME280;24553;51.640;-0.752;2023-03-16T10:25:46;99853.28;;;13.10;100.00
38812;BME280;24553;51.640;-0.752;2023-03-16T10:28:18;99850.53;;;13.17;100.00
38812;BME280;24553;51.640;-0.752;2023-03-16T10:30:44;99845.78;;;13.19;100.00
38812;BME280;24553;51.640;-0.752;2023-03-16T10:33:22;99845.78;;;13.19;100.00
38812;BME280;24553;51.640;-0.752;2023-03-16T10:43:42;99826.13;;;13.38;100.00
38812;BME280;24553;51.640;-0.752;2023-03-16T10:46:09;99824.22;;;13.57;100.00
38812;BME280;24553;51.640;-0.752;2023-03-16T10:48:36;99819.75;;;13.69;100.00
38812;BME280;24553;51.640;-0.752;2023-03-16T10:51:06;99809.56;;;13.66;100.00
38812;BME280;24553;51.640;-0.752;2023-03-16T10:53:34;99811.13;;;13.98;100.00
38812;BME280;24553;51.640;-0.752;2023-03-16T10:56:08;99802.78;;;14.06;100.00
38812;BME280;24553;51.640;-0.752;2023-03-16T10:58:40;99807.22;;;14.24;100.00
38812;BME280;24553;51.640;-0.752;2023-03-16T11:01:25;99789.72;;;14.28;100.00
38812;BME280;24553;51.640;-0.752;2023-03-16T11:03:53;99797.56;;;13.99;100.00
38812;BME280;24553;51.640;-0.752;2023-03-16T11:06:23;99782.94;;;13.78;100.00
38812;BME280;24553;51.640;-0.752;2023-03-16T11:08:51;99776.47;;;14.09;100.00
38812;BME280;24553;51.640;-0.752;2023-03-16T11:11:22;99765.59;;;14.34;100.00
38812;BME280;24553;51.640;-0.752;2023-03-16T11:13:48;99756.31;;;14.60;100.00
38812;BME280;24553;51.640;-0.752;2023-03-16T11:16:41;99754.22;;;14.63;100.00
38812;BME280;24553;51.640;-0.752;2023-03-16T11:27:03;99751.00;;;15.01;100.00
38812;BME280;24553;51.640;-0.752;2023-03-16T11:29:46;99751.38;;;15.21;100.00
38812;BME280;24553;51.640;-0.752;2023-03-16T11:32:19;99750.94;;;15.58;100.00
38812;BME280;24553;51.640;-0.752;2023-03-16T11:34:47;99761.19;;;15.78;100.00
38812;BME280;24553;51.640;-0.752;2023-03-16T11:42:28;99741.63;;;16.28;100.00
38812;BME280;24553;51.640;-0.752;2023-03-16T11:45:16;99738.59;;;16.42;100.00
38812;BME280;24553;51.640;-0.752;2023-03-16T11:48:23;99740.50;;;16.24;100.00
38812;BME280;24553;51.640;-0.752;2023-03-16T11:51:14;99734.28;;;15.85;100.00
38812;BME280;24553;51.640;-0.752;2023-03-16T11:56:48;99722.59;;;14.95;100.00
38812;BME280;24553;51.640;-0.752;2023-03-16T12:02:23;99737.09;;;15.61;100.00
38812;BME280;24553;51.640;-0.752;2023-03-16T12:10:53;99725.38;;;15.17;100.00
38812;BME280;24553;51.640;-0.752;2023-03-16T12:16:22;99732.00;;;15.60;100.00
38812;BME280;24553;51.640;-0.752;2023-03-16T12:18:54;99739.63;;;15.68;100.00
38812;BME280;24553;51.640;-0.752;2023-03-16T12:23:58;99726.53;;;15.83;100.00
38812;BME280;24553;51.640;-0.752;2023-03-16T12:26:26;99718.47;;;16.00;100.00
38812;BME280;24553;51.640;-0.752;2023-03-16T12:28:55;99731.38;;;16.03;100.00
38812;BME280;24553;51.640;-0.752;2023-03-16T12:31:39;99730.84;;;16.23;100.00
38812;BME280;24553;51.640;-0.752;2023-03-16T12:34:22;99707.19;;;16.32;100.00
38812;BME280;24553;51.640;-0.752;2023-03-16T12:36:55;99705.63;;;16.58;100.00
38812;BME280;24553;51.640;-0.752;2023-03-16T12:39:55;99713.13;;;16.39;100.00
38812;BME280;24553;51.640;-0.752;2023-03-16T12:45:31;99687.38;;;16.77;100.00
38812;BME280;24553;51.640;-0.752;2023-03-16T12:50:23;99685.38;;;17.16;100.00
38812;BME280;24553;51.640;-0.752;2023-03-16T12:52:51;99688.06;;;17.16;100.00
38812;BME280;24553;51.640;-0.752;2023-03-16T12:55:25;99676.91;;;17.25;100.00
38812;BME280;24553;51.640;-0.752;2023-03-16T12:57:59;99664.53;;;16.25;100.00
38812;BME280;24553;51.640;-0.752;2023-03-16T13:00:33;99665.22;;;16.16;100.00
38812;BME280;24553;51.640;-0.752;2023-03-16T13:03:00;99654.78;;;16.80;100.00
38812;BME280;24553;51.640;-0.752;2023-03-16T13:05:29;99656.75;;;16.90;100.00
38812;BME280;24553;51.640;-0.752;2023-03-16T13:08:05;99658.28;;;16.81;100.00
38812;BME280;24553;51.640;-0.752;2023-03-16T13:10:33;99662.13;;;16.46;100.00
38812;BME280;24553;51.640;-0.752;2023-03-16T13:13:10;99680.84;;;16.46;100.00
38812;BME280;24553;51.640;-0.752;2023-03-16T13:15:37;99679.28;;;16.28;100.00
38812;BME280;24553;51.640;-0.752;2023-03-16T13:23:24;99675.38;;;16.13;100.00
38812;BME280;24553;51.640;-0.752;2023-03-16T13:26:45;99678.66;;;16.21;100.00
38812;BME280;24553;51.640;-0.752;2023-03-16T13:29:26;99672.19;;;16.17;100.00
38812;BME280;24553;51.640;-0.752;2023-03-16T13:31:53;99669.91;;;16.25;100.00
38812;BME280;24553;51.640;-0.752;2023-03-16T13:34:30;99656.03;;;16.28;100.00
38812;BME280;24553;51.640;-0.752;2023-03-16T13:36:57;99635.94;;;16.26;100.00
38812;BME280;24553;51.640;-0.752;2023-03-16T13:39:28;99625.06;;;16.32;100.00
38812;BME280;24553;51.640;-0.752;2023-03-16T13:44:21;99630.22;;;16.17;100.00
38812;BME280;24553;51.640;-0.752;2023-03-16T13:46:48;99623.84;;;16.23;100.00
38812;BME280;24553;51.640;-0.752;2023-03-16T13:49:17;99612.41;;;16.50;100.00
38812;BME280;24553;51.640;-0.752;2023-03-16T13:51:43;99610.44;;;16.67;100.00
38812;BME280;24553;51.640;-0.752;2023-03-16T13:54:29;99616.13;;;16.71;100.00
38812;BME280;24553;51.640;-0.752;2023-03-16T13:56:58;99607.81;;;16.72;100.00
38812;BME280;24553;51.640;-0.752;2023-03-16T13:59:24;99614.81;;;16.73;100.00